Time;durP1;ratioP1;P1;durP2;ratioP2;P2;SDS_P1;SDS_P2;PMS_P1;PMS_P2;Temp;Humidity;BMP_temperature;BMP_pressure;BME280_temperature;BME280_humidity;BME280_pressure;Samples;Min_cycle;Max_cycle;Signal;HPM_P1;HPM_P2
2021/04/25 00:00:42;;;;;;;13.68;6.30;;;9.10;47.60;;;;;;5054428;28;20366;-75
2021/04/25 00:03:07;;;;;;;14.65;7.50;;;9.10;47.90;;;;;;5054335;28;20017;-76
2021/04/25 00:05:33;;;;;;;13.25;7.65;;;9.10;48.40;;;;;;5054346;28;20110;-76
2021/04/25 00:07:59;;;;;;;14.80;7.03;;;9.10;48.20;;;;;;5054271;28;20179;-75
2021/04/25 00:10:24;;;;;;;10.65;5.65;;;9.10;48.20;;;;;;5053883;28;20075;-75
2021/04/25 00:12:50;;;;;;;12.80;5.80;;;9.10;48.20;;;;;;5054082;28;20049;-76
2021/04/25 00:15:22;;;;;;;9.73;5.05;;;9.10;48.10;;;;;;5054175;28;20017;-75
2021/04/25 00:17:48;;;;;;;12.13;6.03;;;9.10;48.10;;;;;;5054008;28;20029;-75
2021/04/25 00:20:14;;;;;;;11.77;5.32;;;9.00;48.30;;;;;;5054099;28;20029;-75
2021/04/25 00:22:40;;;;;;;14.02;6.57;;;8.90;48.70;;;;;;5037390;28;20029;-75
2021/04/25 00:25:08;;;;;;;11.93;6.18;;;8.70;49.20;;;;;;5053966;28;20128;-75
2021/04/25 00:27:33;;;;;;;12.82;6.45;;;8.60;49.40;;;;;;5054059;28;20017;-75
2021/04/25 00:29:59;;;;;;;12.20;6.63;;;8.60;49.50;;;;;;5055082;28;20036;-74
2021/04/25 00:32:26;;;;;;;11.63;5.97;;;8.50;49.80;;;;;;5053996;28;20170;-74
2021/04/25 00:34:51;;;;;;;10.32;5.68;;;8.60;49.90;;;;;;5053745;28;20024;-74
2021/04/25 00:37:17;;;;;;;11.90;6.30;;;8.60;49.90;;;;;;5053714;28;20174;-74
2021/04/25 00:39:44;;;;;;;13.52;6.75;;;8.60;49.90;;;;;;5053667;28;20041;-75
2021/04/25 00:42:12;;;;;;;13.35;7.35;;;8.60;50.10;;;;;;5053881;28;20032;-74
2021/04/25 00:44:37;;;;;;;11.80;5.70;;;8.50;50.30;;;;;;5053647;28;20386;-77
2021/04/25 00:47:03;;;;;;;15.68;6.80;;;8.50;50.50;;;;;;5053568;28;20025;-74
2021/04/25 00:49:28;;;;;;;13.63;7.07;;;8.40;50.50;;;;;;5053562;28;20466;-75
2021/04/25 00:51:54;;;;;;;12.13;6.38;;;8.40;50.60;;;;;;5053327;28;20024;-74
2021/04/25 00:54:20;;;;;;;10.15;6.03;;;8.40;50.90;;;;;;5053587;28;20025;-75
2021/04/25 00:56:46;;;;;;;8.95;5.60;;;8.40;50.90;;;;;;5053460;28;20078;-74
2021/04/25 00:59:12;;;;;;;9.32;5.40;;;8.40;51.00;;;;;;5053461;28;20036;-75
2021/04/25 01:01:37;;;;;;;11.57;5.80;;;8.40;50.90;;;;;;5053350;28;20025;-75
2021/04/25 01:04:04;;;;;;;10.73;6.03;;;8.30;51.80;;;;;;5053313;28;20474;-76
2021/04/25 01:06:31;;;;;;;9.68;5.40;;;8.20;51.30;;;;;;5052777;28;20024;-77
2021/04/25 01:08:57;;;;;;;10.93;6.03;;;8.10;51.60;;;;;;5036834;28;20021;-76
2021/04/25 01:11:23;;;;;;;11.13;5.68;;;7.80;52.10;;;;;;5056306;28;20029;-76
2021/04/25 01:13:50;;;;;;;10.48;5.40;;;7.70;52.60;;;;;;5058382;28;20029;-76
2021/04/25 01:16:17;;;;;;;10.88;5.47;;;7.70;52.80;;;;;;5057374;28;20390;-76
2021/04/25 01:18:42;;;;;;;10.35;5.15;;;7.80;52.90;;;;;;5053855;28;20098;-76
2021/04/25 01:21:08;;;;;;;13.35;6.55;;;7.80;52.90;;;;;;5052914;28;20462;-74
2021/04/25 01:23:33;;;;;;;10.02;5.75;;;7.80;52.80;;;;;;5052158;28;20021;-76
2021/04/25 01:25:59;;;;;;;8.77;5.38;;;7.90;52.70;;;;;;5052884;28;20033;-74
2021/04/25 01:28:25;;;;;;;11.38;5.70;;;7.80;52.60;;;;;;5052482;28;20029;-73
2021/04/25 01:30:53;;;;;;;11.05;6.13;;;7.80;52.60;;;;;;5052652;28;20058;-74
2021/04/25 01:33:18;;;;;;;15.98;6.00;;;7.80;52.70;;;;;;5052861;28;20032;-74
2021/04/25 01:35:44;;;;;;;11.68;6.03;;;7.70;52.80;;;;;;5052452;28;20362;-74
2021/04/25 01:38:10;;;;;;;9.82;5.30;;;7.70;53.00;;;;;;5052090;28;20060;-75
2021/04/25 01:40:36;;;;;;;8.95;5.22;;;7.70;53.10;;;;;;5052251;28;20032;-74
2021/04/25 01:43:01;;;;;;;11.23;5.18;;;7.70;53.10;;;;;;5053507;28;20035;-74
2021/04/25 01:45:28;;;;;;;10.48;5.25;;;7.70;53.20;;;;;;5052552;28;20436;-74
2021/04/25 01:47:56;;;;;;;9.45;5.60;;;7.70;53.20;;;;;;5052407;28;20029;-74
2021/04/25 01:50:23;;;;;;;12.63;5.35;;;7.60;53.10;;;;;;5051968;28;20045;-74
2021/04/25 01:52:49;;;;;;;9.57;5.70;;;7.60;53.20;;;;;;5052193;28;20033;-74
2021/04/25 01:55:16;;;;;;;15.80;6.22;;;7.50;53.30;;;;;;5052158;28;20028;-74
2021/04/25 01:57:41;;;;;;;10.70;5.45;;;7.50;53.60;;;;;;5052311;28;20028;-77
2021/04/25 02:00:10;;;;;;;13.50;6.20;;;7.50;53.70;;;;;;5052229;28;20025;-74
2021/04/25 02:02:36;;;;;;;10.95;6.63;;;7.40;54.00;;;;;;5053358;28;20494;-76
2021/04/25 02:05:02;;;;;;;14.82;6.88;;;7.40;54.10;;;;;;5052033;28;20124;-74
2021/04/25 02:07:28;;;;;;;11.88;6.40;;;7.40;54.10;;;;;;5051848;28;20021;-75
2021/04/25 02:09:55;;;;;;;11.68;6.88;;;7.30;54.20;;;;;;5051961;28;20112;-75
2021/04/25 02:12:21;;;;;;;13.30;7.03;;;7.30;54.20;;;;;;5052019;28;20025;-75
2021/04/25 02:14:46;;;;;;;15.15;7.28;;;7.20;54.70;;;;;;5051606;28;20086;-75
2021/04/25 02:17:12;;;;;;;13.48;7.00;;;7.10;54.90;;;;;;5052064;28;20111;-75
2021/04/25 02:19:38;;;;;;;11.98;6.97;;;7.20;55.80;;;;;;5051646;28;20044;-76
2021/04/25 02:22:05;;;;;;;16.50;7.40;;;7.10;55.00;;;;;;5051807;28;20024;-75
2021/04/25 02:24:31;;;;;;;11.20;6.00;;;7.10;55.20;;;;;;5051859;28;20025;-74
2021/04/25 02:26:57;;;;;;;13.38;6.22;;;7.10;55.20;;;;;;5051738;28;20032;-75
2021/04/25 02:29:22;;;;;;;10.55;6.03;;;7.10;55.30;;;;;;5053384;28;20024;-75
2021/04/25 02:31:48;;;;;;;11.63;5.80;;;7.10;55.40;;;;;;5051739;28;20469;-74
2021/04/25 02:34:13;;;;;;;13.85;6.07;;;7.10;55.40;;;;;;5052581;28;20053;-75
2021/04/25 02:36:40;;;;;;;10.82;5.68;;;7.10;55.40;;;;;;5051557;28;20067;-74
2021/04/25 02:39:06;;;;;;;12.20;6.15;;;7.00;55.30;;;;;;5051328;28;20045;-75
2021/04/25 02:41:33;;;;;;;14.05;6.00;;;7.00;55.30;;;;;;5051540;28;20083;-77
2021/04/25 02:43:59;;;;;;;13.25;5.93;;;6.80;55.90;;;;;;5051335;28;20040;-77
2021/04/25 02:46:25;;;;;;;10.93;6.40;;;6.70;56.20;;;;;;5052870;28;20557;-76
2021/04/25 02:48:51;;;;;;;13.10;6.43;;;6.70;56.40;;;;;;5051517;28;20047;-76
2021/04/25 02:51:16;;;;;;;13.73;6.65;;;6.70;56.80;;;;;;5051466;28;20074;-76
2021/04/25 02:53:42;;;;;;;10.77;5.60;;;6.80;56.80;;;;;;5051515;28;20029;-76
2021/04/25 02:56:08;;;;;;;12.65;6.38;;;6.90;56.60;;;;;;5052803;28;20028;-76
2021/04/25 02:58:33;;;;;;;12.15;6.47;;;6.90;56.50;;;;;;5051095;28;20044;-76
2021/04/25 03:01:00;;;;;;;16.92;6.85;;;6.90;56.40;;;;;;5034635;28;20025;-77
2021/04/25 03:03:26;;;;;;;12.85;6.63;;;6.90;56.50;;;;;;5051576;28;20112;-77
2021/04/25 03:05:56;;;;;;;14.25;7.13;;;6.90;57.20;;;;;;5051136;28;20543;-77
2021/04/25 03:08:22;;;;;;;15.25;7.97;;;6.80;56.40;;;;;;5051393;28;20104;-77
2021/04/25 03:10:49;;;;;;;21.20;8.10;;;6.80;56.30;;;;;;5052460;28;20104;-76
2021/04/25 03:13:15;;;;;;;17.58;8.27;;;6.80;56.30;;;;;;5051591;28;20032;-76
2021/04/25 03:15:41;;;;;;;14.35;8.05;;;6.70;56.70;;;;;;5051418;28;20021;-76
2021/04/25 03:18:06;;;;;;;20.25;9.73;;;6.60;56.80;;;;;;5051001;28;20025;-77
2021/04/25 03:20:32;;;;;;;14.38;8.43;;;6.60;56.90;;;;;;5051390;28;20033;-77
2021/04/25 03:22:57;;;;;;;12.77;7.43;;;6.60;57.10;;;;;;5051182;28;20029;-76
2021/04/25 03:25:23;;;;;;;13.30;6.47;;;6.60;57.10;;;;;;5050980;28;20116;-77
2021/04/25 03:27:50;;;;;;;12.60;6.50;;;6.50;57.20;;;;;;5050882;28;20124;-77
2021/04/25 03:30:17;;;;;;;12.77;6.80;;;6.50;57.50;;;;;;5050969;28;20028;-77
2021/04/25 03:32:43;;;;;;;13.10;6.97;;;6.40;57.70;;;;;;5051130;28;20025;-76
2021/04/25 03:35:11;;;;;;;18.40;8.25;;;6.40;57.80;;;;;;5051025;28;20029;-76
2021/04/25 03:37:38;;;;;;;12.73;7.85;;;6.40;57.80;;;;;;5052075;28;20101;-76
2021/04/25 03:40:06;;;;;;;16.00;9.77;;;6.40;57.90;;;;;;5050574;28;20397;-76
2021/04/25 03:42:33;;;;;;;17.80;10.88;;;6.40;57.90;;;;;;5051182;28;20021;-76
2021/04/25 03:45:00;;;;;;;16.35;10.98;;;6.40;58.10;;;;;;5051027;28;20039;-76
2021/04/25 03:47:26;;;;;;;15.25;9.07;;;6.40;58.20;;;;;;5054448;28;20025;-76
2021/04/25 03:49:52;;;;;;;15.88;8.40;;;6.40;58.10;;;;;;5055779;28;20028;-76
2021/04/25 03:52:17;;;;;;;13.50;7.90;;;6.30;58.30;;;;;;5054800;28;20450;-76
2021/04/25 03:54:43;;;;;;;14.82;8.02;;;6.30;58.40;;;;;;5054544;28;20025;-76
2021/04/25 03:57:08;;;;;;;13.68;7.28;;;6.30;58.40;;;;;;5054349;28;20057;-77
2021/04/25 03:59:34;;;;;;;12.48;7.57;;;6.20;58.30;;;;;;5054372;28;20033;-76
2021/04/25 04:02:00;;;;;;;13.18;7.10;;;6.20;58.40;;;;;;5054406;28;20029;-76
2021/04/25 04:04:26;;;;;;;10.75;5.88;;;6.20;58.50;;;;;;5055656;28;20032;-76
2021/04/25 04:06:51;;;;;;;12.82;6.53;;;6.20;58.50;;;;;;5054352;28;20422;-76
2021/04/25 04:09:18;;;;;;;10.98;6.10;;;6.10;58.60;;;;;;5054466;28;20029;-76
2021/04/25 04:11:45;;;;;;;11.00;5.85;;;6.20;58.70;;;;;;5055569;28;20028;-76
2021/04/25 04:14:11;;;;;;;12.55;6.45;;;6.10;58.90;;;;;;5054332;28;20028;-76
2021/04/25 04:16:36;;;;;;;12.65;6.40;;;6.10;59.10;;;;;;5055412;28;20017;-76
2021/04/25 04:19:02;;;;;;;13.10;6.70;;;6.00;59.30;;;;;;5056365;28;20033;-76
2021/04/25 04:21:28;;;;;;;10.57;6.00;;;6.00;59.50;;;;;;5056209;28;20036;-76
2021/04/25 04:23:53;;;;;;;12.68;6.47;;;5.90;59.50;;;;;;5054048;28;20066;-76
2021/04/25 04:26:20;;;;;;;10.90;5.30;;;5.80;59.70;;;;;;5053821;28;20025;-76
2021/04/25 04:28:45;;;;;;;12.05;6.18;;;5.70;59.90;;;;;;5053751;28;20032;-76
2021/04/25 04:31:11;;;;;;;10.27;5.95;;;5.70;60.10;;;;;;5037175;28;20058;-76
2021/04/25 04:33:37;;;;;;;11.20;6.38;;;5.80;60.20;;;;;;5053822;28;20088;-75
2021/04/25 04:36:04;;;;;;;11.38;6.50;;;5.90;60.20;;;;;;5053411;28;20025;-76
2021/04/25 04:38:29;;;;;;;12.90;6.82;;;5.90;60.10;;;;;;5053578;28;20126;-75
2021/04/25 04:40:56;;;;;;;14.48;7.07;;;6.00;59.90;;;;;;5053685;28;20037;-75
2021/04/25 04:43:22;;;;;;;12.00;6.63;;;6.00;59.80;;;;;;5053682;28;20060;-75
2021/04/25 04:45:48;;;;;;;14.27;6.55;;;6.00;59.70;;;;;;5053271;28;20215;-75
2021/04/25 04:48:14;;;;;;;12.73;7.28;;;6.00;59.70;;;;;;5053660;28;20452;-76
2021/04/25 04:50:39;;;;;;;15.63;7.40;;;6.00;59.80;;;;;;5053239;28;20421;-76
2021/04/25 04:53:05;;;;;;;14.77;7.70;;;6.10;59.90;;;;;;5053377;28;20021;-76
2021/04/25 04:55:31;;;;;;;14.55;7.18;;;6.20;59.80;;;;;;5053581;28;20031;-75
2021/04/25 04:57:57;;;;;;;11.27;6.78;;;6.20;59.50;;;;;;5052979;28;20025;-76
2021/04/25 05:00:24;;;;;;;14.65;7.05;;;6.20;59.30;;;;;;5053283;28;20036;-76
2021/04/25 05:02:50;;;;;;;12.75;6.32;;;6.20;59.50;;;;;;5053264;28;20116;-76
2021/04/25 05:05:17;;;;;;;12.25;6.82;;;6.30;59.70;;;;;;5054671;28;20474;-75
2021/04/25 05:07:44;;;;;;;9.98;6.35;;;6.40;59.40;;;;;;5053178;28;20059;-76
2021/04/25 05:10:10;;;;;;;12.68;6.53;;;6.50;59.20;;;;;;5054130;28;20029;-76
2021/04/25 05:12:36;;;;;;;14.40;6.70;;;6.60;58.80;;;;;;5052872;28;20113;-76
2021/04/25 05:15:02;;;;;;;14.88;8.98;;;6.60;58.60;;;;;;5052791;28;20120;-75
2021/04/25 05:17:28;;;;;;;20.38;11.57;;;6.70;58.40;;;;;;5052901;28;20477;-74
2021/04/25 05:19:53;;;;;;;20.77;11.52;;;6.80;58.10;;;;;;5053891;28;20047;-75
2021/04/25 05:22:19;;;;;;;20.38;9.90;;;6.90;58.10;;;;;;5054078;28;20032;-75
2021/04/25 05:24:45;;;;;;;15.85;9.70;;;6.90;58.00;;;;;;5052787;28;20064;-75
2021/04/25 05:27:10;;;;;;;14.80;8.75;;;7.00;57.90;;;;;;5036193;28;20481;-74
2021/04/25 05:29:36;;;;;;;12.18;6.43;;;7.10;57.90;;;;;;5052768;28;20119;-74
2021/04/25 05:32:02;;;;;;;16.45;6.95;;;7.20;57.80;;;;;;5052357;28;20466;-74
2021/04/25 05:34:28;;;;;;;11.75;6.20;;;7.40;57.50;;;;;;5052275;28;20033;-76
2021/04/25 05:36:54;;;;;;;14.75;6.93;;;7.50;57.20;;;;;;5052342;28;20075;-76
2021/04/25 05:39:19;;;;;;;10.43;5.68;;;7.60;56.90;;;;;;5053793;28;20460;-75
2021/04/25 05:41:45;;;;;;;9.38;5.93;;;7.70;56.70;;;;;;5052503;28;20025;-76
2021/04/25 05:44:11;;;;;;;8.05;5.38;;;7.80;56.40;;;;;;5052247;28;20032;-77
2021/04/25 05:46:36;;;;;;;11.20;6.38;;;7.90;56.30;;;;;;5052158;28;20071;-76
2021/04/25 05:49:04;;;;;;;12.63;6.30;;;7.90;56.00;;;;;;5052056;28;20029;-76
2021/04/25 05:51:30;;;;;;;11.90;6.43;;;8.10;55.80;;;;;;5053577;28;20029;-76
2021/04/25 05:53:55;;;;;;;9.45;5.32;;;8.20;55.50;;;;;;5051835;28;20481;-77
2021/04/25 05:56:22;;;;;;;10.23;5.50;;;8.30;55.20;;;;;;5051997;28;20060;-75
2021/04/25 05:58:48;;;;;;;9.63;5.50;;;8.50;54.90;;;;;;5052086;28;20218;-76
2021/04/25 06:01:14;;;;;;;9.02;5.07;;;8.60;54.60;;;;;;5052239;28;20054;-74
2021/04/25 06:03:39;;;;;;;11.88;6.22;;;8.80;54.30;;;;;;5051757;28;20055;-75
2021/04/25 06:06:05;;;;;;;11.85;6.65;;;9.00;54.00;;;;;;5052008;28;20043;-75
2021/04/25 06:08:31;;;;;;;17.80;7.30;;;9.10;53.70;;;;;;5051646;28;20481;-76
2021/04/25 06:10:56;;;;;;;17.77;8.27;;;9.10;53.40;;;;;;5051784;28;20025;-76
2021/04/25 06:13:22;;;;;;;14.70;7.35;;;9.10;53.30;;;;;;5051717;28;20086;-77
2021/04/25 06:15:48;;;;;;;11.23;6.40;;;9.10;53.30;;;;;;5052031;28;20131;-75
2021/04/25 06:18:13;;;;;;;11.10;5.80;;;9.20;53.20;;;;;;5051596;28;20059;-75
2021/04/25 06:20:39;;;;;;;13.05;6.00;;;9.30;53.00;;;;;;5051760;28;20116;-75
2021/04/25 06:23:04;;;;;;;11.85;5.63;;;9.20;52.80;;;;;;5051955;28;20025;-76
2021/04/25 06:25:32;;;;;;;15.05;6.40;;;9.40;52.80;;;;;;5053173;28;20029;-76
2021/04/25 06:27:57;;;;;;;14.95;6.90;;;9.30;52.80;;;;;;5051710;28;20386;-76
2021/04/25 06:30:23;;;;;;;11.15;6.40;;;9.20;53.30;;;;;;5051635;28;20029;-77
2021/04/25 06:32:49;;;;;;;10.48;6.53;;;9.30;53.70;;;;;;5051719;28;20021;-77
2021/04/25 06:35:15;;;;;;;14.27;7.30;;;9.40;53.20;;;;;;5051635;28;20025;-76
2021/04/25 06:37:44;;;;;;;13.73;6.93;;;9.50;53.00;;;;;;5050093;28;20064;-75
2021/04/25 06:40:11;;;;;;;11.85;6.40;;;9.40;52.90;;;;;;5051107;28;20029;-75
2021/04/25 06:42:41;;;;;;;10.85;6.35;;;9.50;52.60;;;;;;5049683;28;20110;-75
2021/04/25 06:45:16;;;;;;;10.63;5.97;;;9.60;52.40;;;;;;5051040;28;20025;-76
2021/04/25 06:47:43;;;;;;;9.23;5.35;;;9.50;52.60;;;;;;5048931;28;20113;-75
2021/04/25 06:50:11;;;;;;;14.90;7.53;;;9.40;52.80;;;;;;5050901;28;20079;-74
2021/04/25 06:52:47;;;;;;;15.50;6.95;;;9.50;53.10;;;;;;5048378;28;20051;-74
2021/04/25 06:55:15;;;;;;;22.60;6.95;;;9.60;53.20;;;;;;5050762;28;20032;-74
2021/04/25 06:57:44;;;;;;;13.93;6.50;;;9.60;53.00;;;;;;5050464;28;20025;-76
2021/04/25 07:00:11;;;;;;;13.02;6.80;;;9.70;53.00;;;;;;5051596;28;20040;-76
2021/04/25 07:02:37;;;;;;;10.52;6.32;;;9.70;52.80;;;;;;5052139;28;20071;-77
2021/04/25 07:05:04;;;;;;;9.93;5.88;;;9.90;52.60;;;;;;5056643;28;20032;-75
2021/04/25 07:07:30;;;;;;;13.60;6.32;;;10.00;52.20;;;;;;5057178;28;20036;-75
2021/04/25 07:09:56;;;;;;;11.02;6.93;;;10.20;52.00;;;;;;5055470;28;20025;-75
2021/04/25 07:12:22;;;;;;;15.63;7.07;;;10.10;51.80;;;;;;5051801;28;20520;-76
2021/04/25 07:14:48;;;;;;;10.82;6.20;;;10.10;52.00;;;;;;5051381;28;20124;-76
2021/04/25 07:17:14;;;;;;;12.48;6.75;;;10.20;52.10;;;;;;5051671;28;20112;-75
2021/04/25 07:19:39;;;;;;;14.30;6.80;;;10.20;52.70;;;;;;5051037;28;20124;-76
2021/04/25 07:22:05;;;;;;;15.68;6.55;;;10.40;51.60;;;;;;5054426;28;20052;-77
2021/04/25 07:24:31;;;;;;;11.13;6.57;;;10.30;51.90;;;;;;5055103;28;20492;-77
2021/04/25 07:26:56;;;;;;;13.57;6.60;;;10.30;51.70;;;;;;5054918;28;20067;-78
2021/04/25 07:29:22;;;;;;;12.88;7.28;;;10.30;51.80;;;;;;5055145;28;20088;-79
2021/04/25 07:31:59;;;;;;;12.10;7.07;;;10.50;52.70;;;;;;5055132;28;20025;-78
2021/04/25 07:34:25;;;;;;;13.35;7.82;;;10.70;51.60;;;;;;5056530;28;20039;-78
2021/04/25 07:36:52;;;;;;;14.73;7.25;;;10.70;51.20;;;;;;5055694;28;20031;-77
2021/04/25 07:39:17;;;;;;;13.95;7.60;;;10.70;51.20;;;;;;5054662;28;20052;-79
2021/04/25 07:41:43;;;;;;;11.02;7.25;;;10.70;51.20;;;;;;5054693;28;20119;-78
2021/04/25 07:44:09;;;;;;;15.20;7.10;;;10.70;51.10;;;;;;5054989;28;20058;-79
2021/04/25 07:46:40;;;;;;;18.67;8.27;;;10.80;51.30;;;;;;5054566;28;20048;-76
2021/04/25 07:49:06;;;;;;;17.48;8.02;;;10.60;51.70;;;;;;5054533;28;20441;-78
2021/04/25 07:51:32;;;;;;;17.17;7.50;;;10.60;52.60;;;;;;5055897;28;20047;-76
2021/04/25 07:53:59;;;;;;;13.27;7.70;;;10.60;52.80;;;;;;5055820;28;20071;-77
2021/04/25 07:56:29;;;;;;;13.95;7.93;;;10.80;52.50;;;;;;5055880;28;20033;-77
2021/04/25 07:58:55;;;;;;;14.32;8.25;;;10.80;52.10;;;;;;5054455;28;20056;-77
2021/04/25 08:01:20;;;;;;;15.70;8.27;;;10.80;52.60;;;;;;5054385;28;20048;-76
2021/04/25 08:03:46;;;;;;;13.95;7.78;;;10.90;52.30;;;;;;5054170;28;20025;-77
2021/04/25 08:06:12;;;;;;;14.70;7.82;;;10.90;52.50;;;;;;5054017;28;20035;-74
2021/04/25 08:08:37;;;;;;;15.18;7.53;;;11.10;52.70;;;;;;5055363;28;20032;-72
2021/04/25 08:11:03;;;;;;;22.13;7.47;;;11.70;59.60;;;;;;5053996;28;20108;-73
2021/04/25 08:13:29;;;;;;;17.08;8.05;;;12.30;59.40;;;;;;5054308;28;20060;-74
2021/04/25 08:15:54;;;;;;;16.67;7.95;;;12.90;57.50;;;;;;5055431;28;20020;-73
2021/04/25 08:18:20;;;;;;;15.05;7.50;;;13.30;53.30;;;;;;5056422;28;20028;-73
2021/04/25 08:20:45;;;;;;;16.35;8.15;;;13.50;51.80;;;;;;5053985;28;20033;-73
2021/04/25 08:23:11;;;;;;;18.65;7.40;;;13.50;50.10;;;;;;5053952;28;20021;-73
2021/04/25 08:25:37;;;;;;;13.23;7.20;;;13.60;52.30;;;;;;5055081;28;20083;-73
2021/04/25 08:28:03;;;;;;;31.77;12.88;;;13.80;50.10;;;;;;5054984;28;20047;-72
2021/04/25 08:30:28;;;;;;;33.67;11.55;;;13.90;50.90;;;;;;5055052;28;20060;-75
2021/04/25 08:32:54;;;;;;;31.13;11.88;;;13.90;48.10;;;;;;5054555;28;20028;-73
2021/04/25 08:35:20;;;;;;;31.33;10.85;;;13.50;47.30;;;;;;5054882;28;20051;-74
2021/04/25 08:37:46;;;;;;;21.13;9.02;;;13.60;49.40;;;;;;5054661;28;20037;-73
2021/04/25 08:40:13;;;;;;;19.27;8.68;;;13.80;47.80;;;;;;5054722;28;20032;-75
2021/04/25 08:42:39;;;;;;;18.25;7.82;;;13.70;47.30;;;;;;5054666;28;20029;-74
2021/04/25 08:45:05;;;;;;;15.18;9.23;;;14.00;48.20;;;;;;5054822;28;20082;-73
2021/04/25 08:47:42;;;;;;;15.30;8.38;;;14.20;46.80;;;;;;5054636;28;20025;-74
2021/04/25 08:50:08;;;;;;;18.48;8.40;;;14.30;46.20;;;;;;5054864;28;20020;-77
2021/04/25 08:52:35;;;;;;;16.40;8.60;;;14.40;46.00;;;;;;5054568;28;20055;-80
2021/04/25 08:55:00;;;;;;;14.45;7.82;;;14.40;45.50;;;;;;5054459;28;20017;-78
2021/04/25 08:57:26;;;;;;;16.13;9.50;;;14.50;45.40;;;;;;5054578;28;20443;-81
2021/04/25 08:59:51;;;;;;;13.27;8.25;;;14.50;44.80;;;;;;5054558;28;20033;-77
2021/04/25 09:02:17;;;;;;;15.98;10.05;;;14.50;45.10;;;;;;5054550;28;20385;-79
2021/04/25 09:04:42;;;;;;;12.73;7.95;;;14.40;44.80;;;;;;5054298;28;20044;-79
2021/04/25 09:07:15;;;;;;;18.52;9.98;;;14.50;45.20;;;;;;5054385;28;20017;-77
2021/04/25 09:09:43;;;;;;;14.82;7.00;;;14.30;44.40;;;;;;5054452;28;20031;-78
2021/04/25 09:12:09;;;;;;;15.43;8.27;;;14.40;45.50;;;;;;5054497;28;20122;-78
2021/04/25 09:14:39;;;;;;;17.40;9.02;;;14.50;46.10;;;;;;5054017;28;20029;-72
2021/04/25 09:17:05;;;;;;;18.15;8.35;;;14.50;44.70;;;;;;5053977;28;20023;-77
2021/04/25 09:19:53;;;;;;;17.23;8.63;;;14.70;44.70;;;;;;5053963;28;20127;-77
2021/04/25 09:22:21;;;;;;;13.07;7.72;;;14.90;43.80;;;;;;5054088;28;20029;-75
2021/04/25 09:24:47;;;;;;;17.15;10.00;;;15.20;44.00;;;;;;5053790;28;20021;-79
2021/04/25 09:27:24;;;;;;;18.02;9.52;;;15.20;42.10;;;;;;5052598;28;20032;-79
2021/04/25 09:29:53;;;;;;;19.95;9.77;;;14.80;41.90;;;;;;5053878;28;20025;-82
2021/04/25 09:32:30;;;;;;;17.42;9.98;;;14.60;42.20;;;;;;5052517;28;20124;-80
2021/04/25 09:35:15;;;;;;;17.92;9.48;;;14.60;42.30;;;;;;5054038;28;20070;-84
2021/04/25 09:37:44;;;;;;;15.88;9.23;;;15.00;42.60;;;;;;5053929;28;20027;-77
2021/04/25 09:40:13;;;;;;;17.83;8.77;;;15.20;42.40;;;;;;5053725;28;20029;-83
2021/04/25 09:42:58;;;;;;;15.75;8.60;;;15.50;42.10;;;;;;5053256;28;20020;-81
2021/04/25 09:45:30;;;;;;;17.00;9.18;;;15.80;41.40;;;;;;5053675;28;20104;-79
2021/04/25 09:47:56;;;;;;;15.70;9.15;;;15.90;40.50;;;;;;5052831;28;20134;-80
2021/04/25 09:50:23;;;;;;;14.15;6.85;;;16.00;39.50;;;;;;5053642;28;20496;-80
2021/04/25 09:52:51;;;;;;;15.80;8.30;;;15.90;40.00;;;;;;5053428;28;20033;-81
2021/04/25 09:55:18;;;;;;;17.92;8.40;;;16.30;39.80;;;;;;5053803;28;20507;-81
2021/04/25 09:57:45;;;;;;;14.45;8.38;;;16.60;40.00;;;;;;5053479;28;20031;-74
2021/04/25 10:00:11;;;;;;;17.02;8.13;;;17.00;39.40;;;;;;5053299;28;20132;-79
2021/04/25 10:02:55;;;;;;;15.00;7.50;;;17.30;38.90;;;;;;5053461;28;20025;-77
2021/04/25 10:05:21;;;;;;;17.75;9.90;;;17.60;37.90;;;;;;5053211;28;20025;-76
2021/04/25 10:07:47;;;;;;;15.15;9.13;;;17.70;36.90;;;;;;5053159;28;20021;-76
2021/04/25 10:10:19;;;;;;;15.23;9.00;;;17.80;36.20;;;;;;5053406;28;20082;-76
2021/04/25 10:12:48;;;;;;;17.42;7.78;;;17.70;35.50;;;;;;5053133;28;20025;-73
2021/04/25 10:15:16;;;;;;;16.20;8.40;;;17.50;35.40;;;;;;5053641;28;20024;-74
2021/04/25 10:17:47;;;;;;;11.88;6.88;;;17.70;35.10;;;;;;5053705;28;20025;-78
2021/04/25 10:20:15;;;;;;;14.63;8.65;;;17.80;35.50;;;;;;5053364;28;20044;-74
2021/04/25 10:22:42;;;;;;;13.77;6.90;;;17.90;35.10;;;;;;5053336;28;20107;-74
2021/04/25 10:25:13;;;;;;;14.88;7.60;;;17.90;34.70;;;;;;5052971;28;20377;-74
2021/04/25 10:27:43;;;;;;;13.15;7.25;;;17.50;34.20;;;;;;5053116;28;20024;-74
2021/04/25 10:30:12;;;;;;;14.68;8.13;;;17.50;34.60;;;;;;5053158;28;20017;-76
2021/04/25 10:32:41;;;;;;;13.85;8.13;;;17.70;34.40;;;;;;5053362;28;20385;-79
2021/04/25 10:35:22;;;;;;;9.93;6.43;;;17.70;34.00;;;;;;5051420;28;20032;-75
2021/04/25 10:37:49;;;;;;;16.30;9.15;;;18.10;34.30;;;;;;5050283;28;20420;-73
2021/04/25 10:40:19;;;;;;;13.95;6.32;;;18.40;33.70;;;;;;5052913;28;20044;-72
2021/04/25 10:43:01;;;;;;;13.98;8.02;;;18.70;33.10;;;;;;5052768;28;20477;-73
2021/04/25 10:45:34;;;;;;;10.13;6.40;;;18.90;32.40;;;;;;5052822;28;20524;-72
2021/04/25 10:48:17;;;;;;;14.13;8.40;;;19.00;32.30;;;;;;5052643;28;20021;-73
2021/04/25 10:50:45;;;;;;;16.15;6.75;;;19.00;31.50;;;;;;5052787;28;20029;-73
2021/04/25 10:53:19;;;;;;;13.25;7.18;;;19.10;32.00;;;;;;5052658;28;20032;-73
2021/04/25 10:55:50;;;;;;;15.88;8.38;;;19.20;31.30;;;;;;5055581;28;20500;-73
2021/04/25 10:58:19;;;;;;;11.35;6.80;;;19.20;31.20;;;;;;5056753;28;20113;-73
2021/04/25 11:00:45;;;;;;;16.63;7.90;;;19.10;30.80;;;;;;5056620;28;20551;-73
2021/04/25 11:03:21;;;;;;;8.00;5.47;;;19.10;30.40;;;;;;5056593;28;20029;-73
2021/04/25 11:05:48;;;;;;;11.18;6.65;;;19.40;30.90;;;;;;5056662;28;20389;-73
2021/04/25 11:08:17;;;;;;;12.65;6.97;;;19.70;30.00;;;;;;5056647;28;20025;-73
2021/04/25 11:10:49;;;;;;;12.18;6.90;;;19.70;29.10;;;;;;5056540;28;20116;-73
2021/04/25 11:13:33;;;;;;;14.90;7.18;;;19.80;27.90;;;;;;5056748;28;20021;-73
2021/04/25 11:16:02;;;;;;;11.98;6.90;;;19.90;27.20;;;;;;5056588;28;20052;-73
2021/04/25 11:18:51;;;;;;;12.68;6.72;;;19.10;26.60;;;;;;5056617;28;20359;-75
2021/04/25 11:21:36;;;;;;;10.90;6.03;;;19.10;26.80;;;;;;5056611;28;20027;-76
2021/04/25 11:24:01;;;;;;;10.90;6.40;;;19.30;26.40;;;;;;5056566;28;20127;-72
2021/04/25 11:26:36;;;;;;;13.50;6.72;;;19.00;25.80;;;;;;5056351;28;20021;-71
2021/04/25 11:29:12;;;;;;;13.02;6.15;;;18.90;26.20;;;;;;5056347;28;20025;-71
2021/04/25 11:31:54;;;;;;;11.85;7.63;;;18.90;26.30;;;;;;5055057;28;20040;-71
2021/04/25 11:34:25;;;;;;;18.02;9.10;;;19.40;26.70;;;;;;5055721;28;20105;-72
2021/04/25 11:37:06;;;;;;;12.32;7.07;;;19.50;25.90;;;;;;5056032;28;20072;-72
2021/04/25 11:39:34;;;;;;;11.27;7.05;;;19.80;25.50;;;;;;5055863;28;20053;-72
2021/04/25 11:42:01;;;;;;;29.75;17.67;;;20.30;25.50;;;;;;5055910;28;20366;-73
2021/04/25 11:44:28;;;;;;;14.45;7.95;;;20.80;25.40;;;;;;5055962;28;20056;-73
2021/04/25 11:46:54;;;;;;;14.73;7.35;;;21.00;24.50;;;;;;5055910;28;20021;-73
2021/04/25 11:49:31;;;;;;;11.30;6.90;;;20.60;23.90;;;;;;5055899;28;20417;-73
2021/04/25 11:52:09;;;;;;;9.10;6.20;;;20.30;23.50;;;;;;5054550;28;20032;-73
2021/04/25 11:54:35;;;;;;;7.78;5.03;;;20.50;23.50;;;;;;5055641;28;20021;-74
2021/04/25 11:57:20;;;;;;;9.80;5.60;;;20.70;23.50;;;;;;5055808;28;20037;-73
2021/04/25 11:59:54;;;;;;;12.93;6.40;;;20.80;23.30;;;;;;5055523;28;20033;-72
2021/04/25 12:02:21;;;;;;;10.18;5.47;;;20.10;23.00;;;;;;5055565;28;20027;-72
2021/04/25 12:04:51;;;;;;;9.35;4.95;;;19.70;23.00;;;;;;5055592;28;20029;-73
2021/04/25 12:07:32;;;;;;;9.98;5.88;;;20.10;22.90;;;;;;5054810;28;20470;-73
2021/04/25 12:10:00;;;;;;;10.73;5.45;;;20.40;22.60;;;;;;5055304;28;20033;-74
2021/04/25 12:12:26;;;;;;;8.02;5.15;;;20.70;22.60;;;;;;5055359;28;20028;-72
2021/04/25 12:14:59;;;;;;;10.98;6.20;;;20.70;22.40;;;;;;5055400;28;20024;-72
2021/04/25 12:17:25;;;;;;;11.65;5.75;;;20.50;22.10;;;;;;5055367;28;20056;-73
2021/04/25 12:19:50;;;;;;;10.48;6.30;;;20.20;22.10;;;;;;5055023;28;20059;-73
2021/04/25 12:22:16;;;;;;;10.30;5.20;;;20.40;21.90;;;;;;5054277;28;20389;-74
2021/04/25 12:24:42;;;;;;;10.40;5.85;;;20.70;21.90;;;;;;5055475;28;20025;-72
2021/04/25 12:27:08;;;;;;;11.85;5.10;;;20.30;21.90;;;;;;5055468;28;20020;-73
2021/04/25 12:29:38;;;;;;;10.13;5.47;;;20.30;22.30;;;;;;5055618;28;20053;-74
2021/04/25 12:32:05;;;;;;;9.75;5.10;;;20.60;22.50;;;;;;5055711;28;20067;-74
2021/04/25 12:34:32;;;;;;;10.50;5.55;;;21.00;22.30;;;;;;5055136;28;20029;-73
2021/04/25 12:36:59;;;;;;;8.65;5.00;;;20.90;21.40;;;;;;5055049;28;20029;-74
2021/04/25 12:39:41;;;;;;;10.75;6.40;;;21.00;21.40;;;;;;5054945;28;20057;-73
2021/04/25 12:42:19;;;;;;;8.13;4.85;;;21.30;21.40;;;;;;5053821;28;20445;-74
2021/04/25 12:44:45;;;;;;;12.65;5.35;;;21.60;21.30;;;;;;5053600;28;20470;-74